Time;durP1;ratioP1;P1;durP2;ratioP2;P2;SDS_P1;SDS_P2;PMS_P1;PMS_P2;Temp;Humidity;BMP_temperature;BMP_pressure;BME280_temperature;BME280_humidity;BME280_pressure;Samples;Min_cycle;Max_cycle;Signal;HPM_P1;HPM_P2
2022/09/18 00:05:55;;;;;;;11.60;7.75;;;;;;;;;;1925291;71;21553;-91
2022/09/18 00:08:07;;;;;;;;;;;;;;;;;;;;;
2022/09/18 00:11:00;;;;;;;;;;;;;;;;;;;;;
2022/09/18 00:17:10;;;;;;;;;;;;;;;;;;;;;
2022/09/18 00:20:04;;;;;;;14.87;10.53;;;;;;;;;;1809370;77;21899;-87
2022/09/18 00:22:46;;;;;;;14.35;11.83;;;;;;;;;;1821243;77;21312;-90
2022/09/18 00:25:43;;;;;;;17.90;14.15;;;;;;;;;;1740857;81;21141;-89
2022/09/18 00:28:31;;;;;;;30.88;17.02;;;;;;;;;;1742066;81;21164;-90
2022/09/18 00:31:09;;;;;;;12.93;8.23;;;;;;;;;;1601750;88;21204;-92
2022/09/18 00:34:18;;;;;;;;;;;;;;;;;;1612168;87;21266;-92
2022/09/18 00:36:43;;;;;;;6.75;5.60;;;;;;;;;;1706698;82;20223;-91
2022/09/18 00:53:59;;;;;;;8.38;5.95;;;;;;;;;;1944179;73;22194;-91
2022/09/18 00:56:37;;;;;;;5.83;4.85;;;;;;;;;;1926354;73;21217;-91
2022/09/18 01:05:06;;;;;;;;;;;;;;;;;;;;;
2022/09/18 01:07:50;;;;;;;7.25;4.85;;;;;;;;;;1729356;81;21260;-91
2022/09/18 01:10:36;;;;;;;7.60;5.87;;;;;;;;;;1729347;81;21167;-91
2022/09/18 01:16:35;;;;;;;6.90;5.42;;;;;;;;;;1675502;85;21216;-92
2022/09/18 01:35:30;;;;;;;11.10;8.45;;;;;;;;;;1920030;73;21177;-91
2022/09/18 01:38:26;;;;;;;;;;;;;;;;;;1788493;79;21122;-91
2022/09/18 01:41:25;;;;;;;;;;;;;;;;;;;;;
2022/09/18 01:44:28;;;;;;;;;;;;;;;;;;;;;
2022/09/18 02:12:23;;;;;;;9.50;8.50;;;;;;;;;;1985595;70;22856;-88
2022/09/18 02:15:08;;;;;;;;;;;;;;;;;;;;;
2022/09/18 02:17:44;;;;;;;9.60;8.65;;;;;;;;;;1923821;72;21216;-90
2022/09/18 02:20:30;;;;;;;9.73;8.83;;;;;;;;;;1946012;72;21182;-88
2022/09/18 02:23:00;;;;;;;9.95;8.08;;;;;;;;;;1925966;72;21100;-88
2022/09/18 02:25:30;;;;;;;10.80;8.70;;;;;;;;;;1943277;72;21208;-88
2022/09/18 02:28:02;;;;;;;9.83;8.68;;;;;;;;;;1929778;72;21268;-89
2022/09/18 02:30:41;;;;;;;11.90;8.83;;;;;;;;;;1940394;72;21120;-90
2022/09/18 02:36:17;;;;;;;9.20;8.38;;;;;;;;;;1938905;72;21104;-88
2022/09/18 02:38:51;;;;;;;12.10;9.35;;;;;;;;;;1944269;72;21139;-90
2022/09/18 02:41:23;;;;;;;9.60;8.55;;;;;;;;;;1942544;72;21213;-89
2022/09/18 02:46:58;;;;;;;10.58;7.90;;;;;;;;;;1828774;75;21204;-89
2022/09/18 02:49:30;;;;;;;10.35;8.38;;;;;;;;;;1786733;79;21243;-89
2022/09/18 02:52:09;;;;;;;9.53;8.08;;;;;;;;;;1815282;76;21265;-89
2022/09/18 02:54:38;;;;;;;9.53;7.65;;;;;;;;;;1820915;77;21291;-89
2022/09/18 02:57:13;;;;;;;8.83;7.90;;;;;;;;;;1829445;76;21128;-89
2022/09/18 03:00:57;;;;;;;7.78;6.33;;;;;;;;;;1784465;78;21247;-88
2022/09/18 03:05:43;;;;;;;8.65;6.62;;;;;;;;;;1812762;77;21258;-88
2022/09/18 03:08:23;;;;;;;183.87;27.42;;;;;;;;;;1779454;78;21255;-88
2022/09/18 03:14:07;;;;;;;46.40;12.20;;;;;;;;;;1679455;81;21175;-88
2022/09/18 03:30:42;;;;;;;6.65;4.70;;;;;;;;;;2014971;69;22148;-88
2022/09/18 03:33:09;;;;;;;6.87;4.53;;;;;;;;;;1977759;70;21163;-89
2022/09/18 03:35:44;;;;;;;6.50;4.35;;;;;;;;;;1969556;70;21229;-89
2022/09/18 03:38:12;;;;;;;5.05;4.53;;;;;;;;;;1974175;70;21229;-89
2022/09/18 03:40:43;;;;;;;4.92;4.17;;;;;;;;;;1970447;70;21161;-89
2022/09/18 03:43:15;;;;;;;5.58;4.47;;;;;;;;;;1973823;70;21790;-87
2022/09/18 03:45:45;;;;;;;8.00;4.47;;;;;;;;;;1964459;70;21154;-89
2022/09/18 03:48:17;;;;;;;9.43;5.53;;;;;;;;;;1982974;70;21555;-88
2022/09/18 03:50:48;;;;;;;6.62;5.30;;;;;;;;;;1973370;70;21147;-87
2022/09/18 03:53:18;;;;;;;7.08;5.03;;;;;;;;;;1965031;70;21183;-89
2022/09/18 03:55:50;;;;;;;5.33;4.83;;;;;;;;;;1963559;71;21640;-88
2022/09/18 03:58:20;;;;;;;5.87;5.28;;;;;;;;;;1971277;70;21225;-88
2022/09/18 04:00:54;;;;;;;6.80;4.37;;;;;;;;;;1963516;71;21053;-88
2022/09/18 04:03:29;;;;;;;8.30;5.28;;;;;;;;;;1973037;70;21131;-89
2022/09/18 04:05:57;;;;;;;6.45;4.70;;;;;;;;;;1986638;70;21819;-91
2022/09/18 04:08:28;;;;;;;7.17;4.42;;;;;;;;;;2002154;70;21461;-89
2022/09/18 04:10:59;;;;;;;5.37;4.10;;;;;;;;;;1991762;70;21140;-90
2022/09/18 04:13:32;;;;;;;4.00;3.40;;;;;;;;;;1989224;70;21301;-89
2022/09/18 04:16:05;;;;;;;6.65;4.37;;;;;;;;;;1990442;71;21256;-89
2022/09/18 04:18:38;;;;;;;4.80;3.75;;;;;;;;;;1988290;69;21110;-88
2022/09/18 04:24:09;;;;;;;5.20;4.25;;;;;;;;;;1997283;70;21273;-88
2022/09/18 04:26:48;;;;;;;8.10;4.10;;;;;;;;;;1997499;70;21426;-90
2022/09/18 04:29:35;;;;;;;4.65;4.03;;;;;;;;;;1992892;69;21160;-89
2022/09/18 04:32:12;;;;;;;5.17;3.52;;;;;;;;;;1999017;70;21112;-89
2022/09/18 04:34:37;;;;;;;4.42;3.40;;;;;;;;;;1915764;72;21204;-89
2022/09/18 04:37:07;;;;;;;6.40;3.65;;;;;;;;;;1959991;69;21324;-91
2022/09/18 04:39:39;;;;;;;4.00;3.60;;;;;;;;;;1955388;72;21130;-89
2022/09/18 04:42:10;;;;;;;4.12;3.72;;;;;;;;;;1958103;72;21688;-89
2022/09/18 04:44:41;;;;;;;4.60;3.58;;;;;;;;;;1950782;72;21189;-88
2022/09/18 04:47:11;;;;;;;4.47;3.30;;;;;;;;;;1956929;72;21171;-89
2022/09/18 04:49:41;;;;;;;3.90;3.12;;;;;;;;;;1968056;71;21146;-89
2022/09/18 04:52:12;;;;;;;3.72;3.05;;;;;;;;;;1969789;71;21166;-90
2022/09/18 04:54:42;;;;;;;5.05;2.92;;;;;;;;;;1928582;73;21127;-92
2022/09/18 04:57:12;;;;;;;3.50;2.52;;;;;;;;;;1959659;72;21105;-91
2022/09/18 07:54:35;;;;;;;2.65;1.67;;;;;;;;;;1875562;73;21345;-75
2022/09/18 07:57:05;;;;;;;4.47;2.00;;;;;;;;;;1849349;76;21135;-74
2022/09/18 07:59:36;;;;;;;3.00;1.95;;;;;;;;;;1842594;78;21217;-74
2022/09/18 08:02:06;;;;;;;3.17;2.10;;;;;;;;;;1833516;76;21085;-73
2022/09/18 08:04:37;;;;;;;2.87;1.90;;;;;;;;;;1871106;76;21204;-73
2022/09/18 08:07:10;;;;;;;4.97;2.08;;;;;;;;;;1868967;76;21179;-72
2022/09/18 08:09:42;;;;;;;2.83;1.72;;;;;;;;;;1859677;75;21190;-73
2022/09/18 08:12:18;;;;;;;1.95;1.60;;;;;;;;;;1832413;77;21163;-73
2022/09/18 08:14:48;;;;;;;3.37;1.90;;;;;;;;;;1858378;76;21130;-73
2022/09/18 08:17:19;;;;;;;4.72;2.10;;;;;;;;;;1865454;77;21157;-73
2022/09/18 08:19:49;;;;;;;2.52;1.60;;;;;;;;;;1863406;77;21229;-74
2022/09/18 08:22:19;;;;;;;2.80;1.67;;;;;;;;;;1879374;75;21735;-73
2022/09/18 08:24:49;;;;;;;2.62;1.90;;;;;;;;;;1871426;76;21173;-71
2022/09/18 08:27:20;;;;;;;2.80;1.67;;;;;;;;;;1863039;75;21688;-73
2022/09/18 08:29:50;;;;;;;3.37;1.60;;;;;;;;;;1873631;76;21131;-73
2022/09/18 08:32:22;;;;;;;2.42;1.50;;;;;;;;;;1864394;76;21102;-72
2022/09/18 08:34:52;;;;;;;3.83;1.40;;;;;;;;;;1826936;77;21100;-74
2022/09/18 08:37:22;;;;;;;2.72;1.35;;;;;;;;;;1828710;78;21230;-73
2022/09/18 08:39:52;;;;;;;3.67;1.50;;;;;;;;;;1851071;76;21051;-75
2022/09/18 08:42:23;;;;;;;3.50;1.40;;;;;;;;;;1833898;78;21074;-74
2022/09/18 08:44:55;;;;;;;2.55;1.45;;;;;;;;;;1833106;78;21642;-72
2022/09/18 08:47:30;;;;;;;2.15;1.60;;;;;;;;;;1878999;75;21237;-74
2022/09/18 08:50:00;;;;;;;1.95;1.30;;;;;;;;;;1876186;75;21092;-75
2022/09/18 08:54:06;;;;;;;1.92;1.10;;;;;;;;;;1809090;78;21199;-74
2022/09/18 08:55:46;;;;;;;3.67;1.07;;;;;;;;;;1762467;78;21215;-75
2022/09/18 08:58:16;;;;;;;1.45;1.12;;;;;;;;;;1797550;78;21178;-74
2022/09/18 09:00:48;;;;;;;2.92;1.40;;;;;;;;;;1809175;78;21142;-74
2022/09/18 09:03:19;;;;;;;3.42;1.80;;;;;;;;;;1807490;77;21662;-75
2022/09/18 09:05:54;;;;;;;2.12;1.27;;;;;;;;;;1802601;78;21187;-75
2022/09/18 09:08:27;;;;;;;3.62;1.45;;;;;;;;;;1805233;79;21159;-74
2022/09/18 09:10:58;;;;;;;3.62;1.80;;;;;;;;;;1808106;77;21264;-74
2022/09/18 09:13:30;;;;;;;3.20;1.50;;;;;;;;;;1797664;79;21598;-74
2022/09/18 09:16:01;;;;;;;3.22;2.00;;;;;;;;;;1779130;79;21628;-75
2022/09/18 09:18:35;;;;;;;2.42;1.50;;;;;;;;;;1794854;78;21289;-74
2022/09/18 09:21:10;;;;;;;4.78;1.82;;;;;;;;;;1794829;78;21158;-75
2022/09/18 09:23:43;;;;;;;3.22;2.22;;;;;;;;;;1811303;78;21711;-73
2022/09/18 09:26:15;;;;;;;2.77;1.70;;;;;;;;;;1804615;79;21746;-74
2022/09/18 09:28:47;;;;;;;3.05;1.50;;;;;;;;;;1813055;77;21235;-74
2022/09/18 09:31:19;;;;;;;2.00;1.25;;;;;;;;;;1875368;74;21556;-75
2022/09/18 09:34:09;;;;;;;4.40;1.62;;;;;;;;;;1873040;75;21200;-75
2022/09/18 09:36:43;;;;;;;3.02;1.55;;;;;;;;;;1858141;76;21115;-75
2022/09/18 09:39:16;;;;;;;2.95;1.55;;;;;;;;;;1853086;77;21180;-75
2022/09/18 09:41:47;;;;;;;2.98;1.60;;;;;;;;;;1858510;76;21519;-76
2022/09/18 09:44:19;;;;;;;2.58;1.50;;;;;;;;;;1848553;75;21039;-74
2022/09/18 09:46:51;;;;;;;2.33;1.42;;;;;;;;;;1834407;77;21219;-75
2022/09/18 09:49:22;;;;;;;2.40;1.42;;;;;;;;;;1900782;74;21597;-75
2022/09/18 09:51:54;;;;;;;5.33;1.90;;;;;;;;;;1881003;74;21604;-74
2022/09/18 09:54:29;;;;;;;3.45;1.47;;;;;;;;;;1887925;76;21588;-74
2022/09/18 09:57:02;;;;;;;4.75;1.47;;;;;;;;;;1863765;75;21118;-73
2022/09/18 09:59:33;;;;;;;3.02;1.60;;;;;;;;;;1883789;76;21083;-72
2022/09/18 10:02:05;;;;;;;2.67;1.55;;;;;;;;;;1884137;74;21165;-74
2022/09/18 10:04:36;;;;;;;2.58;1.20;;;;;;;;;;1884902;76;21224;-74
2022/09/18 10:07:08;;;;;;;3.95;1.50;;;;;;;;;;1871222;76;21201;-73
2022/09/18 10:09:39;;;;;;;2.87;1.65;;;;;;;;;;1884265;75;21204;-74
2022/09/18 10:12:11;;;;;;;2.90;1.50;;;;;;;;;;1873153;76;21165;-72
2022/09/18 10:14:43;;;;;;;3.02;1.25;;;;;;;;;;1877131;74;21130;-74
2022/09/18 10:17:19;;;;;;;2.80;1.50;;;;;;;;;;1887951;76;21161;-86
2022/09/18 10:19:50;;;;;;;4.90;1.50;;;;;;;;;;1890756;76;21154;-91
2022/09/18 10:22:22;;;;;;;2.77;1.40;;;;;;;;;;1892846;73;21134;-87
2022/09/18 10:24:53;;;;;;;2.40;1.30;;;;;;;;;;1892086;76;21663;-85
2022/09/18 10:27:23;;;;;;;4.05;1.42;;;;;;;;;;1889599;76;21138;-85
2022/09/18 10:29:59;;;;;;;2.37;1.12;;;;;;;;;;1888836;76;21071;-86
2022/09/18 10:32:27;;;;;;;5.30;1.55;;;;;;;;;;1888748;73;21130;-86
2022/09/18 10:34:57;;;;;;;3.67;1.82;;;;;;;;;;1889096;76;21197;-87
2022/09/18 10:37:29;;;;;;;6.42;1.75;;;;;;;;;;1872082;75;21138;-87
2022/09/18 10:40:11;;;;;;;4.12;1.20;;;;;;;;;;1873842;76;21193;-85
2022/09/18 10:42:41;;;;;;;2.42;1.47;;;;;;;;;;1886286;76;21086;-86
2022/09/18 10:45:12;;;;;;;3.10;1.40;;;;;;;;;;1889130;76;21095;-87
2022/09/18 10:47:43;;;;;;;2.40;1.32;;;;;;;;;;1882403;75;21592;-86
2022/09/18 10:50:14;;;;;;;5.00;1.90;;;;;;;;;;1859465;76;21044;-86
2022/09/18 10:52:47;;;;;;;2.30;1.35;;;;;;;;;;1867810;77;21067;-85
2022/09/18 10:55:22;;;;;;;2.85;1.35;;;;;;;;;;1852943;77;21126;-86
2022/09/18 10:57:57;;;;;;;2.50;1.32;;;;;;;;;;1870133;75;21053;-87
2022/09/18 11:00:29;;;;;;;2.22;1.30;;;;;;;;;;1869397;77;21064;-84
2022/09/18 11:03:01;;;;;;;8.60;2.65;;;;;;;;;;1892665;76;21180;-87
2022/09/18 11:05:32;;;;;;;7.55;2.40;;;;;;;;;;1892525;75;21138;-86
2022/09/18 11:08:04;;;;;;;9.40;3.17;;;;;;;;;;1893425;75;21086;-85
2022/09/18 11:10:37;;;;;;;7.22;2.60;;;;;;;;;;1893501;74;21087;-86
2022/09/18 11:13:09;;;;;;;7.53;2.70;;;;;;;;;;1888748;76;21102;-86
2022/09/18 11:15:40;;;;;;;8.13;2.40;;;;;;;;;;1878829;76;21616;-86
2022/09/18 11:18:12;;;;;;;3.80;2.10;;;;;;;;;;1871146;74;21115;-87
2022/09/18 11:20:52;;;;;;;5.42;2.15;;;;;;;;;;1888323;76;21110;-86
2022/09/18 11:23:23;;;;;;;2.50;1.75;;;;;;;;;;1889185;76;21655;-86
2022/09/18 11:25:55;;;;;;;4.28;1.82;;;;;;;;;;1888754;74;21133;-87
2022/09/18 11:28:27;;;;;;;3.77;1.72;;;;;;;;;;1890336;74;21146;-88
2022/09/18 11:31:04;;;;;;;4.95;2.25;;;;;;;;;;1888769;76;21138;-86
2022/09/18 11:33:42;;;;;;;3.70;2.20;;;;;;;;;;1887230;76;21203;-86
2022/09/18 11:36:14;;;;;;;4.65;2.10;;;;;;;;;;1889652;76;21071;-86
2022/09/18 11:38:45;;;;;;;5.62;2.08;;;;;;;;;;1890485;75;21106;-87
2022/09/18 11:41:16;;;;;;;5.08;2.30;;;;;;;;;;1888376;74;21585;-86
2022/09/18 11:43:57;;;;;;;5.17;2.80;;;;;;;;;;1870895;75;21208;-86
2022/09/18 11:47:00;;;;;;;5.10;2.52;;;;;;;;;;1854564;76;21154;-86
2022/09/18 11:49:34;;;;;;;4.00;2.65;;;;;;;;;;1889796;74;21043;-86
2022/09/18 11:52:05;;;;;;;5.83;2.02;;;;;;;;;;1870472;76;21228;-85
2022/09/18 11:54:43;;;;;;;3.52;2.35;;;;;;;;;;1884433;74;21176;-86
2022/09/18 11:57:14;;;;;;;4.97;2.42;;;;;;;;;;1890266;74;21121;-86
2022/09/18 11:59:46;;;;;;;5.50;2.30;;;;;;;;;;1884519;74;21196;-87
2022/09/18 12:02:18;;;;;;;3.98;2.20;;;;;;;;;;1888495;74;21188;-87
2022/09/18 12:04:53;;;;;;;4.40;2.52;;;;;;;;;;1889893;74;21185;-86
2022/09/18 12:07:25;;;;;;;5.33;2.80;;;;;;;;;;1888897;74;22142;-86
2022/09/18 12:10:11;;;;;;;7.22;2.62;;;;;;;;;;1887891;74;21114;-85
2022/09/18 12:12:43;;;;;;;5.72;2.80;;;;;;;;;;1883805;74;21163;-87
2022/09/18 12:15:15;;;;;;;4.58;2.67;;;;;;;;;;1890648;74;21724;-87
2022/09/18 12:18:04;;;;;;;9.75;4.33;;;;;;;;;;1895036;74;21153;-86
2022/09/18 12:27:26;;;;;;;6.05;3.02;;;;;;;;;;1718642;81;21665;-87
2022/09/18 12:30:08;;;;;;;4.78;3.47;;;;;;;;;;1736900;80;21840;-86
2022/09/18 12:35:59;;;;;;;5.47;3.27;;;;;;;;;;1627729;87;21233;-86
2022/09/18 12:49:12;;;;;;;9.80;2.62;;;;;;;;;;1890633;75;22151;-83
2022/09/18 12:52:31;;;;;;;3.85;2.50;;;;;;;;;;1815662;79;21147;-84
2022/09/18 12:54:40;;;;;;;3.75;1.90;;;;;;;;;;1836119;78;21192;-83
2022/09/18 12:57:14;;;;;;;4.10;2.27;;;;;;;;;;1812081;79;21548;-83
2022/09/18 12:59:45;;;;;;;4.25;1.95;;;;;;;;;;1819963;77;21626;-83
2022/09/18 13:02:16;;;;;;;4.25;1.95;;;;;;;;;;1823086;78;21157;-83
2022/09/18 13:04:48;;;;;;;3.95;2.02;;;;;;;;;;1802233;77;21150;-83
2022/09/18 13:07:19;;;;;;;6.42;1.77;;;;;;;;;;1844010;77;21177;-83
2022/09/18 13:09:54;;;;;;;4.58;1.90;;;;;;;;;;1821121;78;21213;-84
2022/09/18 13:12:25;;;;;;;3.42;1.90;;;;;;;;;;1817668;78;21945;-83
2022/09/18 13:15:00;;;;;;;3.17;1.72;;;;;;;;;;1823289;78;21192;-81
2022/09/18 13:17:36;;;;;;;4.42;2.10;;;;;;;;;;1805133;79;21098;-83
2022/09/18 13:20:05;;;;;;;3.90;1.80;;;;;;;;;;1808625;78;21095;-84
2022/09/18 13:22:36;;;;;;;3.83;1.90;;;;;;;;;;1824305;77;21124;-85
2022/09/18 13:25:07;;;;;;;3.55;1.90;;;;;;;;;;1834360;77;21133;-83
2022/09/18 13:27:38;;;;;;;3.10;1.80;;;;;;;;;;1827872;77;21178;-83
2022/09/18 13:30:09;;;;;;;3.85;1.77;;;;;;;;;;1830661;77;21128;-83
2022/09/18 13:32:40;;;;;;;4.30;2.02;;;;;;;;;;1829034;77;21745;-84
2022/09/18 13:35:13;;;;;;;4.35;1.95;;;;;;;;;;1805194;79;21634;-84
2022/09/18 13:37:44;;;;;;;4.05;2.08;;;;;;;;;;1816660;78;21162;-84
2022/09/18 13:40:15;;;;;;;2.77;1.82;;;;;;;;;;1792568;79;21156;-83
2022/09/18 13:42:45;;;;;;;5.37;2.27;;;;;;;;;;1783017;78;21196;-84
2022/09/18 13:45:16;;;;;;;6.60;2.37;;;;;;;;;;1803386;79;21671;-85
2022/09/18 13:47:48;;;;;;;3.15;2.12;;;;;;;;;;1833771;77;21115;-84
2022/09/18 13:50:40;;;;;;;4.25;2.22;;;;;;;;;;1844246;77;21278;-83
2022/09/18 13:52:56;;;;;;;3.50;1.85;;;;;;;;;;1815580;77;21249;-84
2022/09/18 13:55:28;;;;;;;3.17;1.90;;;;;;;;;;1821105;78;21095;-82
2022/09/18 13:58:00;;;;;;;4.60;2.00;;;;;;;;;;1839067;77;21151;-84
2022/09/18 14:00:31;;;;;;;3.95;2.12;;;;;;;;;;1833082;77;21107;-82
2022/09/18 14:03:03;;;;;;;5.03;2.22;;;;;;;;;;1813736;78;21127;-84
2022/09/18 14:05:34;;;;;;;5.22;2.40;;;;;;;;;;1809167;78;21669;-83
2022/09/18 14:08:06;;;;;;;5.53;2.50;;;;;;;;;;1809021;78;21661;-83
2022/09/18 14:10:38;;;;;;;3.83;2.50;;;;;;;;;;1817521;78;21104;-84
2022/09/18 14:13:11;;;;;;;3.52;2.58;;;;;;;;;;1822309;78;21111;-83
2022/09/18 14:15:42;;;;;;;5.10;2.40;;;;;;;;;;1818247;78;21154;-83
2022/09/18 14:18:13;;;;;;;5.75;2.70;;;;;;;;;;1843321;77;21638;-82
2022/09/18 14:20:45;;;;;;;6.60;2.70;;;;;;;;;;1834818;77;21209;-83
2022/09/18 14:23:16;;;;;;;5.58;2.67;;;;;;;;;;1803755;78;21170;-84
2022/09/18 14:25:48;;;;;;;6.45;2.92;;;;;;;;;;1833894;77;21178;-83
2022/09/18 14:28:20;;;;;;;6.60;2.90;;;;;;;;;;1842008;77;21658;-83
2022/09/18 14:30:51;;;;;;;5.33;2.70;;;;;;;;;;1841924;77;21155;-83
2022/09/18 14:33:22;;;;;;;4.67;2.80;;;;;;;;;;1838521;77;21169;-83
2022/09/18 14:35:54;;;;;;;7.33;2.45;;;;;;;;;;1835341;77;21661;-83
2022/09/18 14:38:27;;;;;;;4.20;2.42;;;;;;;;;;1819578;77;21212;-83
2022/09/18 14:41:01;;;;;;;5.90;2.37;;;;;;;;;;1804806;78;21271;-80
2022/09/18 14:43:32;;;;;;;6.17;2.58;;;;;;;;;;1803256;78;21625;-81
2022/09/18 14:46:03;;;;;;;4.33;2.83;;;;;;;;;;1806610;78;21223;-83
2022/09/18 14:48:34;;;;;;;5.35;2.75;;;;;;;;;;1828787;77;21682;-82
2022/09/18 14:51:06;;;;;;;5.05;2.45;;;;;;;;;;1799968;79;21151;-82
2022/09/18 14:53:37;;;;;;;4.62;2.35;;;;;;;;;;1813024;77;21161;-84
2022/09/18 14:56:09;;;;;;;4.42;2.15;;;;;;;;;;1830101;78;21114;-84
2022/09/18 14:58:40;;;;;;;6.70;2.12;;;;;;;;;;1807557;78;21645;-84
2022/09/18 15:01:12;;;;;;;6.58;1.72;;;;;;;;;;1830692;77;21143;-85
2022/09/18 15:03:43;;;;;;;3.45;1.67;;;;;;;;;;1829547;77;21178;-83
2022/09/18 15:06:14;;;;;;;3.50;1.90;;;;;;;;;;1833070;77;21139;-84
2022/09/18 15:08:46;;;;;;;3.40;1.60;;;;;;;;;;1834253;78;21681;-84
2022/09/18 15:11:17;;;;;;;3.98;1.82;;;;;;;;;;1830678;77;21109;-83
2022/09/18 15:13:49;;;;;;;5.17;1.80;;;;;;;;;;1798516;79;21157;-84
2022/09/18 15:16:20;;;;;;;3.40;1.90;;;;;;;;;;1795728;79;21632;-83
2022/09/18 15:18:50;;;;;;;4.08;1.67;;;;;;;;;;1821429;77;21258;-82
2022/09/18 15:21:22;;;;;;;3.00;1.52;;;;;;;;;;1811828;79;21199;-83
2022/09/18 15:23:53;;;;;;;3.20;1.20;;;;;;;;;;1794345;79;21081;-84
2022/09/18 15:26:25;;;;;;;2.27;1.42;;;;;;;;;;1803810;79;21139;-84
2022/09/18 15:28:59;;;;;;;6.10;1.85;;;;;;;;;;1843143;77;21104;-83
2022/09/18 15:31:32;;;;;;;4.92;1.80;;;;;;;;;;1836158;77;21191;-84
2022/09/18 15:34:08;;;;;;;6.87;2.08;;;;;;;;;;1802969;79;21776;-82
2022/09/18 15:36:39;;;;;;;5.58;2.17;;;;;;;;;;1800032;79;21332;-84
2022/09/18 15:39:10;;;;;;;3.65;2.02;;;;;;;;;;1824980;76;21203;-82
2022/09/18 15:41:42;;;;;;;5.10;1.60;;;;;;;;;;1815527;77;21144;-83
2022/09/18 15:44:19;;;;;;;2.98;1.40;;;;;;;;;;1799219;79;21199;-82
2022/09/18 15:46:51;;;;;;;4.58;1.70;;;;;;;;;;1800681;78;21261;-83
2022/09/18 15:49:28;;;;;;;3.25;1.62;;;;;;;;;;1821771;77;21096;-84
2022/09/18 15:51:55;;;;;;;8.60;1.72;;;;;;;;;;1821462;78;21645;-83
2022/09/18 15:54:29;;;;;;;3.17;1.50;;;;;;;;;;1801212;79;21116;-82
2022/09/18 15:57:00;;;;;;;3.55;1.40;;;;;;;;;;1772004;79;21701;-84
2022/09/18 15:59:31;;;;;;;4.40;1.32;;;;;;;;;;1838630;77;21126;-84
2022/09/18 16:02:06;;;;;;;3.25;1.40;;;;;;;;;;1817451;78;21119;-83
2022/09/18 16:04:35;;;;;;;2.65;1.60;;;;;;;;;;1828989;77;21174;-84
2022/09/18 16:07:12;;;;;;;3.25;1.55;;;;;;;;;;1815228;78;21143;-84
2022/09/18 16:09:44;;;;;;;3.77;1.52;;;;;;;;;;1814890;78;21159;-84
2022/09/18 16:12:15;;;;;;;4.50;1.60;;;;;;;;;;1814272;79;21190;-82
2022/09/18 16:14:48;;;;;;;4.80;1.62;;;;;;;;;;1781374;79;21179;-83
2022/09/18 16:17:19;;;;;;;2.62;1.32;;;;;;;;;;1823824;77;21180;-84
2022/09/18 16:19:53;;;;;;;2.58;1.57;;;;;;;;;;1798814;77;21292;-81
2022/09/18 16:22:23;;;;;;;5.08;1.85;;;;;;;;;;1842964;76;21162;-84
2022/09/18 16:24:55;;;;;;;5.62;1.70;;;;;;;;;;1806832;77;21147;-83
2022/09/18 16:27:28;;;;;;;3.33;1.60;;;;;;;;;;1819870;77;21119;-83
2022/09/18 16:29:58;;;;;;;3.62;1.90;;;;;;;;;;1814370;77;21127;-83
2022/09/18 16:32:28;;;;;;;5.12;2.00;;;;;;;;;;1810676;77;21187;-83
2022/09/18 16:34:59;;;;;;;4.30;1.60;;;;;;;;;;1806578;79;21248;-83
2022/09/18 16:37:29;;;;;;;5.35;1.92;;;;;;;;;;1798043;79;21218;-84
2022/09/18 16:40:00;;;;;;;3.00;1.47;;;;;;;;;;1833517;77;21196;-85
2022/09/18 16:42:39;;;;;;;5.33;1.80;;;;;;;;;;1833813;77;21151;-83
2022/09/18 16:45:06;;;;;;;3.67;1.65;;;;;;;;;;1781428;79;21952;-84
2022/09/18 16:47:40;;;;;;;2.75;1.70;;;;;;;;;;1833294;77;21642;-84
2022/09/18 16:50:11;;;;;;;3.87;1.70;;;;;;;;;;1800374;79;21301;-83
2022/09/18 16:52:44;;;;;;;6.10;2.62;;;;;;;;;;1802516;79;21235;-83
2022/09/18 16:55:16;;;;;;;3.12;1.65;;;;;;;;;;1828442;77;21135;-83
2022/09/18 16:57:46;;;;;;;4.95;1.70;;;;;;;;;;1825517;77;21198;-83
2022/09/18 17:00:17;;;;;;;3.77;1.80;;;;;;;;;;1864139;75;21696;-83
2022/09/18 17:02:49;;;;;;;2.37;1.37;;;;;;;;;;1862943;76;21249;-85
2022/09/18 17:05:19;;;;;;;2.80;1.80;;;;;;;;;;1861113;76;21069;-83
2022/09/18 17:07:49;;;;;;;3.62;1.42;;;;;;;;;;1863050;76;21100;-83
2022/09/18 17:10:23;;;;;;;3.65;1.60;;;;;;;;;;1862564;76;21151;-84
2022/09/18 17:12:53;;;;;;;3.05;1.70;;;;;;;;;;1825763;76;21667;-86
2022/09/18 17:15:25;;;;;;;3.22;1.40;;;;;;;;;;1864912;76;21510;-83
2022/09/18 17:17:57;;;;;;;3.80;1.32;;;;;;;;;;1863842;76;21210;-84
2022/09/18 17:20:27;;;;;;;3.45;1.70;;;;;;;;;;1858517;76;21676;-84
2022/09/18 17:22:57;;;;;;;4.47;1.45;;;;;;;;;;1862334;76;21257;-87
2022/09/18 17:25:27;;;;;;;6.40;1.80;;;;;;;;;;1855828;76;21190;-85
2022/09/18 17:27:57;;;;;;;4.60;1.98;;;;;;;;;;1862632;76;21159;-84
2022/09/18 17:30:27;;;;;;;2.72;1.50;;;;;;;;;;1864736;76;21488;-84
2022/09/18 17:32:58;;;;;;;4.37;2.15;;;;;;;;;;1861332;76;21133;-85
2022/09/18 17:35:29;;;;;;;4.37;2.20;;;;;;;;;;1865472;76;21246;-83
2022/09/18 17:38:07;;;;;;;3.05;1.80;;;;;;;;;;1834586;76;21132;-83
2022/09/18 17:40:37;;;;;;;5.55;1.80;;;;;;;;;;1866429;76;21139;-83
2022/09/18 17:43:07;;;;;;;2.70;1.50;;;;;;;;;;1861302;76;21534;-86
2022/09/18 17:45:37;;;;;;;3.40;2.00;;;;;;;;;;1866956;76;21769;-84
2022/09/18 17:48:12;;;;;;;2.77;1.77;;;;;;;;;;1864937;76;21163;-83
2022/09/18 17:50:42;;;;;;;3.90;2.10;;;;;;;;;;1868487;75;21187;-83
2022/09/18 17:53:12;;;;;;;5.28;1.98;;;;;;;;;;1874726;76;21186;-82
2022/09/18 17:55:44;;;;;;;4.00;2.17;;;;;;;;;;1867860;76;21115;-84
2022/09/18 17:58:14;;;;;;;5.62;2.30;;;;;;;;;;1876399;76;21234;-83
2022/09/18 18:00:44;;;;;;;2.92;2.20;;;;;;;;;;1864943;76;21130;-83
2022/09/18 18:03:16;;;;;;;3.65;2.12;;;;;;;;;;1877026;76;21151;-82
2022/09/18 18:05:49;;;;;;;6.05;2.50;;;;;;;;;;1821776;77;21189;-84
2022/09/18 18:08:20;;;;;;;7.97;5.95;;;;;;;;;;1813583;78;21119;-84
2022/09/18 18:10:50;;;;;;;7.00;2.83;;;;;;;;;;1786572;78;21141;-82
2022/09/18 18:13:20;;;;;;;5.53;3.12;;;;;;;;;;1786363;78;21235;-84
2022/09/18 18:15:52;;;;;;;6.15;2.60;;;;;;;;;;1807114;78;21131;-82
2022/09/18 18:18:22;;;;;;;5.50;2.67;;;;;;;;;;1832837;77;21740;-83
2022/09/18 18:20:52;;;;;;;5.78;2.52;;;;;;;;;;1838928;76;21248;-83
2022/09/18 18:23:23;;;;;;;7.67;2.80;;;;;;;;;;1835782;77;21182;-82
2022/09/18 18:25:56;;;;;;;5.35;2.90;;;;;;;;;;1834221;77;21145;-83
2022/09/18 18:28:29;;;;;;;6.20;3.00;;;;;;;;;;1835559;77;21127;-85
2022/09/18 18:31:04;;;;;;;3.95;2.80;;;;;;;;;;1805560;79;21167;-83
2022/09/18 18:33:32;;;;;;;4.50;2.95;;;;;;;;;;1832902;78;21225;-83
2022/09/18 18:36:03;;;;;;;6.45;3.15;;;;;;;;;;1803047;79;21187;-85
2022/09/18 18:38:34;;;;;;;5.83;2.80;;;;;;;;;;1785320;78;21166;-84
2022/09/18 18:41:10;;;;;;;6.08;2.77;;;;;;;;;;1815917;77;21120;-83
2022/09/18 18:43:41;;;;;;;5.10;3.05;;;;;;;;;;1809599;79;21124;-84
2022/09/18 18:46:12;;;;;;;5.03;2.98;;;;;;;;;;1795514;78;21167;-85
2022/09/18 18:48:46;;;;;;;6.85;3.47;;;;;;;;;;1836470;77;21584;-83
2022/09/18 18:51:16;;;;;;;5.95;3.40;;;;;;;;;;1839269;77;21205;-83
2022/09/18 18:53:46;;;;;;;4.80;2.90;;;;;;;;;;1839594;77;21096;-83
2022/09/18 18:56:17;;;;;;;4.35;3.37;;;;;;;;;;1840691;77;21167;-82
2022/09/18 18:58:47;;;;;;;4.60;3.37;;;;;;;;;;1815659;77;21138;-83
2022/09/18 19:01:18;;;;;;;7.15;3.83;;;;;;;;;;1808807;78;21100;-83
2022/09/18 19:03:50;;;;;;;4.70;3.40;;;;;;;;;;1806530;78;21088;-83
2022/09/18 19:06:22;;;;;;;7.28;3.40;;;;;;;;;;1822756;78;21171;-84
2022/09/18 19:08:54;;;;;;;4.97;3.85;;;;;;;;;;1804218;79;21273;-83
2022/09/18 19:11:28;;;;;;;5.55;3.83;;;;;;;;;;1824167;77;21205;-83
2022/09/18 19:13:59;;;;;;;5.28;3.70;;;;;;;;;;1807162;78;21151;-83
2022/09/18 19:16:31;;;;;;;6.50;3.55;;;;;;;;;;1804002;78;21678;-84
2022/09/18 19:19:02;;;;;;;6.58;3.52;;;;;;;;;;1845228;77;21146;-83
2022/09/18 19:21:32;;;;;;;8.15;3.98;;;;;;;;;;1828214;77;21591;-83
2022/09/18 19:24:03;;;;;;;6.03;4.00;;;;;;;;;;1825515;78;21147;-84
2022/09/18 19:26:34;;;;;;;7.05;4.30;;;;;;;;;;1809673;78;21130;-83
2022/09/18 19:29:07;;;;;;;7.65;4.25;;;;;;;;;;1835301;77;21641;-83
2022/09/18 19:31:38;;;;;;;6.30;3.62;;;;;;;;;;1805328;78;21213;-82
2022/09/18 19:34:10;;;;;;;7.70;3.90;;;;;;;;;;1814998;78;21901;-83
2022/09/18 19:36:41;;;;;;;6.55;3.70;;;;;;;;;;1837583;77;21277;-82
2022/09/18 19:39:12;;;;;;;6.60;4.35;;;;;;;;;;1839414;77;21629;-82
2022/09/18 19:41:45;;;;;;;5.10;4.08;;;;;;;;;;1806477;78;21929;-81
2022/09/18 19:44:16;;;;;;;7.85;4.55;;;;;;;;;;1841676;77;21092;-84
2022/09/18 19:46:46;;;;;;;5.65;4.17;;;;;;;;;;1805335;78;21159;-82
2022/09/18 19:49:18;;;;;;;8.03;4.00;;;;;;;;;;1811060;78;21217;-82
2022/09/18 19:51:48;;;;;;;9.40;4.58;;;;;;;;;;1811915;78;21639;-82
2022/09/18 19:54:18;;;;;;;7.22;4.58;;;;;;;;;;1822364;77;21215;-82
2022/09/18 19:56:49;;;;;;;9.03;5.47;;;;;;;;;;1840772;77;21166;-83
2022/09/18 19:59:19;;;;;;;8.70;5.12;;;;;;;;;;1840717;77;21182;-83
2022/09/18 20:01:49;;;;;;;9.60;5.40;;;;;;;;;;1809753;78;21198;-83
2022/09/18 20:04:19;;;;;;;8.95;4.80;;;;;;;;;;1831619;77;21493;-83
2022/09/18 20:06:50;;;;;;;6.62;4.42;;;;;;;;;;1825234;77;21249;-84
2022/09/18 20:09:20;;;;;;;8.35;5.00;;;;;;;;;;1825667;78;21241;-84
2022/09/18 20:11:50;;;;;;;7.97;4.72;;;;;;;;;;1842699;77;21704;-83
2022/09/18 20:14:21;;;;;;;7.53;4.62;;;;;;;;;;1821934;77;21175;-83
2022/09/18 20:16:52;;;;;;;10.93;5.05;;;;;;;;;;1820789;78;21125;-84
2022/09/18 20:19:23;;;;;;;6.22;4.50;;;;;;;;;;1827374;77;21205;-84
2022/09/18 20:21:53;;;;;;;7.35;4.92;;;;;;;;;;1840610;76;21900;-83
2022/09/18 20:24:23;;;;;;;6.12;4.80;;;;;;;;;;1830828;77;21262;-82